createdAt,value
2018-05-04T00:01:09.000Z,76.53
2018-05-04T00:02:40.371Z,76.48
2018-05-04T00:04:03.658Z,76.21
2018-05-04T00:05:34.640Z,76.36
2018-05-04T00:06:57.919Z,76.41
2018-05-04T00:08:29.118Z,76.67
2018-05-04T00:09:52.363Z,76.66
2018-05-04T00:11:23.516Z,76.73
2018-05-04T00:12:50.849Z,76.65
2018-05-04T00:14:18.202Z,76.88
2018-05-04T00:15:41.476Z,76.73
2018-05-04T00:17:08.771Z,76.42
2018-05-04T00:18:36.224Z,75.96
2018-05-04T00:20:03.700Z,76.28
2018-05-04T00:21:30.654Z,76.40
2018-05-04T00:23:01.891Z,76.12
2018-05-04T00:24:25.160Z,75.93
2018-05-04T00:25:56.269Z,76.32
2018-05-04T00:27:19.407Z,76.52
2018-05-04T00:28:46.756Z,75.94
2018-05-04T00:30:13.770Z,76.90
2018-05-04T00:31:40.901Z,76.85
2018-05-04T00:33:08.130Z,77.16
2018-05-04T00:34:39.359Z,77.07
2018-05-04T00:36:06.723Z,77.04
2018-05-04T00:37:30.060Z,77.25
2018-05-04T00:39:01.198Z,77.07
2018-05-04T00:40:28.445Z,77.22
2018-05-04T00:41:55.715Z,77.14
2018-05-04T00:43:18.972Z,77.26
2018-05-04T00:44:50.187Z,77.05
2018-05-04T00:46:17.415Z,76.50
2018-05-04T00:47:44.730Z,76.44
2018-05-04T00:49:12.027Z,76.34
2018-05-04T00:50:39.209Z,76.28
2018-05-04T00:52:06.426Z,76.35
2018-05-04T00:53:33.548Z,76.63
2018-05-04T00:55:00.837Z,76.48
2018-05-04T00:56:24.131Z,76.69
2018-05-04T00:57:51.409Z,76.25
2018-05-04T00:59:18.720Z,76.33
2018-05-04T01:00:45.956Z,76.33
2018-05-04T01:02:13.423Z,76.80
2018-05-04T01:03:40.683Z,76.84
2018-05-04T01:05:11.851Z,76.83
2018-05-04T01:06:35.103Z,76.61
2018-05-04T01:08:02.210Z,76.39
2018-05-04T01:09:33.254Z,76.46
2018-05-04T01:10:56.473Z,76.89
2018-05-04T01:12:28.672Z,76.83
2018-05-04T01:13:54.695Z,77.03
2018-05-04T01:15:18.001Z,76.80
2018-05-04T01:16:49.135Z,76.99
2018-05-04T01:18:16.453Z,76.53
2018-05-04T01:19:39.627Z,76.42
2018-05-04T01:21:06.849Z,76.51
2018-05-04T01:22:34.229Z,76.74
2018-05-04T01:24:01.592Z,76.83
2018-05-04T01:25:32.847Z,77.06
2018-05-04T01:26:56.191Z,76.96
2018-05-04T01:28:27.429Z,76.98
2018-05-04T01:29:50.597Z,77.14
2018-05-04T01:31:21.843Z,77.69
2018-05-04T01:32:49.100Z,78.27
2018-05-04T01:34:12.527Z,78.41
2018-05-04T01:35:43.789Z,78.66
2018-05-04T01:37:07.150Z,78.67
2018-05-04T01:38:38.443Z,78.52
2018-05-04T01:40:01.638Z,78.24
2018-05-04T01:41:32.807Z,78.21
2018-05-04T01:42:56.048Z,78.13
2018-05-04T01:44:23.228Z,77.44
2018-05-04T01:45:54.425Z,77.36
2018-05-04T01:47:21.661Z,76.87
2018-05-04T01:48:48.682Z,76.93
2018-05-04T01:50:15.570Z,76.85
2018-05-04T01:51:42.836Z,76.82
2018-05-04T01:53:06.119Z,77.07
2018-05-04T01:54:36.486Z,77.42
2018-05-04T01:56:04.651Z,77.79
2018-05-04T01:57:31.819Z,77.58
2018-05-04T01:58:55.303Z,77.59
2018-05-04T02:00:26.493Z,77.81
2018-05-04T02:01:49.712Z,77.88
2018-05-04T02:03:20.938Z,78.31
2018-05-04T02:04:44.313Z,78.32
2018-05-04T02:06:11.626Z,77.97
2018-05-04T02:07:38.829Z,77.88
2018-05-04T02:09:06.117Z,77.81
2018-05-04T02:10:33.239Z,77.83
2018-05-04T02:12:00.419Z,77.46
2018-05-04T02:13:31.620Z,77.62
2018-05-04T02:14:54.923Z,77.47
2018-05-04T02:16:25.899Z,77.23
2018-05-04T02:17:53.135Z,77.41
2018-05-04T02:19:16.261Z,77.03
2018-05-04T02:20:47.460Z,77.17
2018-05-04T02:22:10.757Z,77.56
2018-05-04T02:23:38.180Z,78.00
2018-05-04T02:25:05.335Z,78.22
2018-05-04T02:26:36.629Z,78.22
2018-05-04T02:28:03.933Z,78.24
2018-05-04T02:29:27.235Z,78.34
2018-05-04T02:30:58.409Z,77.43
2018-05-04T02:32:21.671Z,77.31
2018-05-04T02:33:52.787Z,77.80
2018-05-04T02:35:15.791Z,77.79
2018-05-04T02:36:47.098Z,77.49
2018-05-04T02:38:10.436Z,77.31
2018-05-04T02:39:41.554Z,77.57
2018-05-04T02:41:08.974Z,77.50
2018-05-04T02:42:36.186Z,77.38
2018-05-04T02:43:59.553Z,78.02
2018-05-04T02:45:26.545Z,78.04
2018-05-04T02:46:53.763Z,77.52
2018-05-04T02:48:20.893Z,78.02
2018-05-04T02:49:48.071Z,78.06
2018-05-04T02:51:15.399Z,77.76
2018-05-04T02:52:46.654Z,77.67
2018-05-04T02:54:13.860Z,77.61
2018-05-04T02:55:37.201Z,77.51
2018-05-04T02:57:04.477Z,77.59
2018-05-04T02:58:35.767Z,77.72
2018-05-04T03:00:02.948Z,77.73
2018-05-04T03:01:25.911Z,78.01
2018-05-04T03:02:53.059Z,78.71
2018-05-04T03:04:24.331Z,78.69
2018-05-04T03:05:51.454Z,78.85
2018-05-04T03:07:18.641Z,78.66
2018-05-04T03:08:46.061Z,78.99
2018-05-04T03:10:13.294Z,79.01
2018-05-04T03:11:40.773Z,78.88
2018-05-04T03:13:07.909Z,78.51
2018-05-04T03:14:35.221Z,78.11
2018-05-04T03:15:58.493Z,77.94
2018-05-04T03:17:29.535Z,77.28
2018-05-04T03:18:56.728Z,77.36
2018-05-04T03:20:20.081Z,77.77
2018-05-04T03:21:51.383Z,78.37
2018-05-04T03:23:18.590Z,79.42
2018-05-04T03:24:45.870Z,79.75
2018-05-04T03:26:08.951Z,79.73
2018-05-04T03:27:39.739Z,80.31
2018-05-04T03:29:03.086Z,80.33
2018-05-04T03:30:30.400Z,80.22
2018-05-04T03:31:57.438Z,80.05
2018-05-04T03:33:28.227Z,80.25
2018-05-04T03:34:55.255Z,80.33
2018-05-04T03:36:22.398Z,80.70
2018-05-04T03:37:49.409Z,81.05
2018-05-04T03:39:12.732Z,80.79
2018-05-04T03:40:40.086Z,80.66
2018-05-04T03:42:07.423Z,80.83
2018-05-04T03:43:38.643Z,81.13
2018-05-04T03:45:01.960Z,81.41
2018-05-04T03:46:29.364Z,81.73
2018-05-04T03:47:56.668Z,81.84
2018-05-04T03:49:23.651Z,81.22
2018-05-04T03:50:54.881Z,80.92
2018-05-04T03:52:21.707Z,81.47
2018-05-04T03:53:48.659Z,81.89
2018-05-04T03:55:11.805Z,81.75
2018-05-04T03:56:39.142Z,81.11
2018-05-04T03:58:06.385Z,82.12
2018-05-04T03:59:37.626Z,81.75
2018-05-04T04:01:04.948Z,81.13
2018-05-04T04:02:28.059Z,81.86
2018-05-04T04:03:59.283Z,82.37
2018-05-04T04:05:22.653Z,82.91
2018-05-04T04:06:53.468Z,83.22
2018-05-04T04:08:16.703Z,82.73
2018-05-04T04:09:43.807Z,83.15
2018-05-04T04:11:11.082Z,83.42
2018-05-04T04:12:42.333Z,83.63
2018-05-04T04:14:09.542Z,84.09
2018-05-04T04:15:32.311Z,84.25
2018-05-04T04:17:03.491Z,84.15
2018-05-04T04:18:26.735Z,83.87
2018-05-04T04:19:53.929Z,84.00
2018-05-04T04:21:21.302Z,83.86
2018-05-04T04:22:48.543Z,84.17
2018-05-04T04:24:19.592Z,84.65
2018-05-04T04:25:42.954Z,85.25
2018-05-04T04:27:14.219Z,85.56
2018-05-04T04:28:37.442Z,85.61
2018-05-04T04:30:08.697Z,85.98
2018-05-04T04:31:32.045Z,86.46
2018-05-04T04:33:03.020Z,85.84
2018-05-04T04:34:26.284Z,85.88
2018-05-04T04:35:57.106Z,85.68
2018-05-04T04:37:24.278Z,85.21
2018-05-04T04:38:51.409Z,84.78
2018-05-04T04:40:14.163Z,84.83
2018-05-04T04:41:41.478Z,84.51
2018-05-04T04:43:12.721Z,84.29
2018-05-04T04:44:36.050Z,84.16
2018-05-04T04:46:03.215Z,83.68
2018-05-04T04:47:30.456Z,83.42
2018-05-04T04:49:01.666Z,83.49
2018-05-04T04:50:24.696Z,83.24
2018-05-04T04:51:51.855Z,82.88
2018-05-04T04:53:23.169Z,82.70
2018-05-04T04:54:50.193Z,82.84
2018-05-04T04:56:13.569Z,82.65
2018-05-04T04:57:40.975Z,83.15
2018-05-04T04:59:12.221Z,83.12
2018-05-04T05:00:39.659Z,82.89
2018-05-04T05:02:02.824Z,82.82
2018-05-04T05:03:34.096Z,82.38
2018-05-04T05:04:57.427Z,82.11
2018-05-04T05:06:24.667Z,82.27
2018-05-04T05:07:51.706Z,82.31
2018-05-04T05:09:22.901Z,83.41
2018-05-04T05:10:45.915Z,83.98
2018-05-04T05:12:13.232Z,84.23
2018-05-04T05:13:44.441Z,83.89
2018-05-04T05:15:07.715Z,83.58
2018-05-04T05:16:35.109Z,83.94
2018-05-04T05:18:02.234Z,83.55
2018-05-04T05:19:29.547Z,83.47
2018-05-04T05:21:00.602Z,83.55
2018-05-04T05:22:27.491Z,82.87
2018-05-04T05:23:50.729Z,82.33
2018-05-04T05:25:21.976Z,82.78
2018-05-04T05:26:45.036Z,83.11
2018-05-04T05:28:16.355Z,82.62
2018-05-04T05:29:39.900Z,82.93
2018-05-04T05:31:07.093Z,82.21
2018-05-04T05:32:33.972Z,81.69
2018-05-04T05:34:05.221Z,81.60
2018-05-04T05:35:28.605Z,81.85
2018-05-04T05:36:55.642Z,81.56
2018-05-04T05:38:26.904Z,81.45
2018-05-04T05:39:50.058Z,81.36
2018-05-04T05:41:17.369Z,80.66
2018-05-04T05:42:48.506Z,79.71
2018-05-04T05:44:11.875Z,79.29
2018-05-04T05:45:43.222Z,79.30
2018-05-04T05:47:10.619Z,78.82
2018-05-04T05:48:37.997Z,77.58
2018-05-04T05:50:01.266Z,77.67
2018-05-04T05:51:28.579Z,77.21
2018-05-04T05:52:59.917Z,76.79
2018-05-04T05:54:27.133Z,76.24
2018-05-04T05:55:50.473Z,76.90
2018-05-04T05:57:21.627Z,75.86
2018-05-04T05:58:44.758Z,75.59
2018-05-04T06:00:16.162Z,75.23
2018-05-04T06:01:39.533Z,74.50
2018-05-04T06:03:10.883Z,73.93
2018-05-04T06:04:33.975Z,74.97
2018-05-04T06:06:01.293Z,74.01
2018-05-04T06:07:32.805Z,74.72
2018-05-04T06:09:00.127Z,75.00
2018-05-04T06:10:27.347Z,75.86
2018-05-04T06:11:50.726Z,75.34
2018-05-04T06:13:21.734Z,74.70
2018-05-04T06:14:49.116Z,74.22
2018-05-04T06:16:12.498Z,74.14
2018-05-04T06:17:39.936Z,73.91
2018-05-04T06:19:11.371Z,74.12
2018-05-04T06:20:38.714Z,73.82
2018-05-04T06:22:05.186Z,73.74
2018-05-04T06:23:33.501Z,73.99
2018-05-04T06:25:00.910Z,72.98
2018-05-04T06:26:24.296Z,72.40
2018-05-04T06:27:55.649Z,72.28
2018-05-04T06:29:18.992Z,71.80
2018-05-04T06:30:46.324Z,71.44
2018-05-04T06:32:17.790Z,71.30
2018-05-04T06:33:41.104Z,71.61
2018-05-04T06:35:12.484Z,70.91
2018-05-04T06:36:39.947Z,70.84
2018-05-04T06:38:03.267Z,70.70
2018-05-04T06:39:34.730Z,71.19
2018-05-04T06:40:58.142Z,71.34
2018-05-04T06:42:29.580Z,70.45
2018-05-04T06:43:52.724Z,72.12
2018-05-04T06:45:19.962Z,70.98
2018-05-04T06:46:47.357Z,71.29
2018-05-04T06:48:18.783Z,71.61
2018-05-04T06:49:42.310Z,71.96
2018-05-04T06:51:13.502Z,71.27
2018-05-04T06:52:40.968Z,70.80
2018-05-04T06:54:08.373Z,72.96
2018-05-04T06:55:35.396Z,73.63
2018-05-04T06:56:58.733Z,70.73
2018-05-04T06:58:29.917Z,70.16
2018-05-04T06:59:53.383Z,69.70
2018-05-04T07:01:24.415Z,69.63
2018-05-04T07:02:47.709Z,70.13
2018-05-04T07:04:18.837Z,70.37
2018-05-04T07:05:42.279Z,70.05
2018-05-04T07:07:09.780Z,71.36
2018-05-04T07:08:36.972Z,71.40
2018-05-04T07:10:04.415Z,71.13
2018-05-04T07:11:31.739Z,70.40
2018-05-04T07:12:58.809Z,70.24
2018-05-04T07:14:25.995Z,68.94
2018-05-04T07:15:53.316Z,69.74
2018-05-04T07:17:24.661Z,68.79
2018-05-04T07:18:51.965Z,69.07
2018-05-04T07:20:15.216Z,69.77
2018-05-04T07:21:46.385Z,68.65
2018-05-04T07:23:13.522Z,70.57
2018-05-04T07:24:40.862Z,71.95
2018-05-04T07:26:08.307Z,69.69
2018-05-04T07:27:31.723Z,69.48
2018-05-04T07:29:03.173Z,69.77
2018-05-04T07:30:30.283Z,69.51
2018-05-04T07:31:57.660Z,69.28
2018-05-04T07:33:21.091Z,69.57
2018-05-04T07:34:48.515Z,68.91
2018-05-04T07:36:15.712Z,69.16
2018-05-04T07:37:47.147Z,71.60
2018-05-04T07:39:14.435Z,70.89
2018-05-04T07:40:41.784Z,72.19
2018-05-04T07:42:09.279Z,71.04
2018-05-04T07:43:32.462Z,70.78
2018-05-04T07:44:59.858Z,71.73
2018-05-04T07:46:31.301Z,70.74
2018-05-04T07:47:54.450Z,72.17
2018-05-04T07:49:21.773Z,70.44
2018-05-04T07:50:53.172Z,71.08
2018-05-04T07:52:16.575Z,69.56
2018-05-04T07:53:43.960Z,69.15
2018-05-04T07:55:15.277Z,68.69
2018-05-04T07:56:38.733Z,67.19
2018-05-04T07:58:05.873Z,68.60
2018-05-04T07:59:37.031Z,66.46
2018-05-04T08:01:04.482Z,65.66
2018-05-04T08:02:27.853Z,66.33
2018-05-04T08:03:55.292Z,67.10
2018-05-04T08:05:22.760Z,66.97
2018-05-04T08:06:54.142Z,66.57
2018-05-04T08:08:21.421Z,66.21
2018-05-04T08:09:44.568Z,65.89
2018-05-04T08:11:12.023Z,66.03
2018-05-04T08:12:43.281Z,63.37
2018-05-04T08:14:06.847Z,63.05
2018-05-04T08:15:33.787Z,64.12
2018-05-04T08:17:01.153Z,64.85
2018-05-04T08:18:28.526Z,65.16
2018-05-04T08:19:59.782Z,64.66
2018-05-04T08:21:26.951Z,62.95
2018-05-04T08:22:50.343Z,64.68
2018-05-04T08:24:17.575Z,62.34
2018-05-04T08:25:44.702Z,62.96
2018-05-04T08:27:16.102Z,65.57
2018-05-04T08:28:43.503Z,62.72
2018-05-04T08:30:06.947Z,62.83
2018-05-04T08:31:38.415Z,63.36
2018-05-04T08:33:05.680Z,66.94
2018-05-04T08:34:28.894Z,65.16
2018-05-04T08:36:00.302Z,64.74
2018-05-04T08:37:30.596Z,62.06
2018-05-04T08:38:54.402Z,63.53
2018-05-04T08:40:17.540Z,64.10
2018-05-04T08:41:44.299Z,62.67
2018-05-04T08:43:15.520Z,62.15
2018-05-04T08:44:42.940Z,61.78
2018-05-04T08:46:06.426Z,60.41
2018-05-04T08:47:33.757Z,61.64
2018-05-04T08:49:01.047Z,61.55
2018-05-04T08:50:32.494Z,61.98
2018-05-04T08:51:55.731Z,62.00
2018-05-04T08:53:23.071Z,61.53
2018-05-04T08:54:54.470Z,58.47
2018-05-04T08:56:17.626Z,60.50
2018-05-04T08:57:44.842Z,60.16
2018-05-04T08:59:12.388Z,61.06
2018-05-04T09:00:43.754Z,60.46
2018-05-04T09:02:10.929Z,61.95
2018-05-04T09:03:34.263Z,61.05
2018-05-04T09:05:05.432Z,61.45
2018-05-04T09:06:28.751Z,58.20
2018-05-04T09:08:00.228Z,58.25
2018-05-04T09:09:27.099Z,58.77
2018-05-04T09:10:50.620Z,60.14
2018-05-04T09:12:17.908Z,56.61
2018-05-04T09:13:45.244Z,58.57
2018-05-04T09:15:12.204Z,60.25
2018-05-04T09:16:43.531Z,57.51
2018-05-04T09:18:11.177Z,58.73
2018-05-04T09:19:34.492Z,58.29
2018-05-04T09:21:01.504Z,56.35
2018-05-04T09:22:32.518Z,55.14
2018-05-04T09:24:00.115Z,57.78
2018-05-04T09:25:23.049Z,58.18
2018-05-04T09:26:54.420Z,58.93
2018-05-04T09:28:18.030Z,58.69
2018-05-04T09:29:45.244Z,57.69
2018-05-04T09:31:12.477Z,57.43
2018-05-04T09:32:39.732Z,56.79
2018-05-04T09:34:11.349Z,55.63
2018-05-04T09:35:34.428Z,54.72
2018-05-04T09:37:01.861Z,57.72
2018-05-04T09:38:33.094Z,58.10
2018-05-04T09:39:56.620Z,52.52
2018-05-04T09:41:23.664Z,55.51
2018-05-04T09:42:55.056Z,54.50
2018-05-04T09:44:18.446Z,55.80
2018-05-04T09:45:45.753Z,53.21
2018-05-04T09:47:13.171Z,51.84
2018-05-04T09:48:44.440Z,51.97
2018-05-04T09:50:11.813Z,52.83
2018-05-04T09:51:35.027Z,54.90
2018-05-04T09:53:02.406Z,51.85
2018-05-04T09:54:33.893Z,52.01
2018-05-04T09:56:01.124Z,51.22
2018-05-04T09:57:28.382Z,53.01
2018-05-04T09:58:55.677Z,49.45
2018-05-04T10:00:23.081Z,54.61
2018-05-04T10:01:46.164Z,53.56
2018-05-04T10:03:17.730Z,54.26
2018-05-04T10:04:45.064Z,54.81
2018-05-04T10:06:12.739Z,52.93
2018-05-04T10:07:40.167Z,52.19
2018-05-04T10:09:03.655Z,52.05
2018-05-04T10:10:30.977Z,52.17
2018-05-04T10:12:02.469Z,52.91
2018-05-04T10:13:29.770Z,50.70
2018-05-04T10:14:52.961Z,50.18
2018-05-04T10:16:20.387Z,50.89
2018-05-04T10:17:51.353Z,52.09
2018-05-04T10:19:15.060Z,51.91
2018-05-04T10:20:42.503Z,52.61
2018-05-04T10:22:14.064Z,51.56
2018-05-04T10:23:41.226Z,48.87
2018-05-04T10:25:04.182Z,51.24
2018-05-04T10:26:31.552Z,51.00
2018-05-04T10:27:58.871Z,50.52
2018-05-04T10:29:26.130Z,53.14
2018-05-04T10:30:53.485Z,50.73
2018-05-04T10:32:20.752Z,51.58
2018-05-04T10:33:48.143Z,49.73
2018-05-04T10:35:15.224Z,50.37
2018-05-04T10:36:46.501Z,51.35
2018-05-04T10:38:10.137Z,50.62
2018-05-04T10:39:41.371Z,52.76
2018-05-04T10:41:04.371Z,52.78
2018-05-04T10:42:35.709Z,52.62
2018-05-04T10:44:03.197Z,51.94
2018-05-04T10:45:26.759Z,53.44
2018-05-04T10:46:54.016Z,54.94
2018-05-04T10:48:21.351Z,51.15
2018-05-04T10:49:52.731Z,53.52
2018-05-04T10:51:20.138Z,53.77
2018-05-04T10:52:43.496Z,50.86
2018-05-04T10:54:10.903Z,51.87
2018-05-04T10:55:38.422Z,56.04
2018-05-04T10:57:05.967Z,54.33
2018-05-04T10:58:33.311Z,51.33
2018-05-04T11:00:04.754Z,52.37
2018-05-04T11:01:28.036Z,54.08
2018-05-04T11:02:55.289Z,53.98
2018-05-04T11:04:26.755Z,52.25
2018-05-04T11:05:50.081Z,51.29
2018-05-04T11:07:17.593Z,54.76
2018-05-04T11:08:48.614Z,50.78
2018-05-04T11:10:16.051Z,51.66
2018-05-04T11:11:39.173Z,51.18
2018-05-04T11:13:06.318Z,51.42
2018-05-04T11:14:37.907Z,53.14
2018-05-04T11:16:01.353Z,50.40
2018-05-04T11:17:28.669Z,48.92
2018-05-04T11:18:56.133Z,49.39
2018-05-04T11:20:23.573Z,47.65
2018-05-04T11:21:51.013Z,47.99
2018-05-04T11:23:18.496Z,50.94
2018-05-04T11:24:45.635Z,49.59
2018-05-04T11:26:16.898Z,49.82
2018-05-04T11:27:40.377Z,49.53
2018-05-04T11:29:11.995Z,52.14
2018-05-04T11:30:34.961Z,50.56
2018-05-04T11:32:02.177Z,49.63
2018-05-04T11:33:29.636Z,45.40
2018-05-04T11:34:56.872Z,50.88
2018-05-04T11:36:28.352Z,50.68
2018-05-04T11:37:51.805Z,51.58
2018-05-04T11:39:23.142Z,50.75
2018-05-04T11:40:50.481Z,49.68
2018-05-04T11:42:17.903Z,51.60
2018-05-04T11:43:45.530Z,50.44
2018-05-04T11:45:12.967Z,48.51
2018-05-04T11:46:40.476Z,48.54
2018-05-04T11:48:03.768Z,47.14
2018-05-04T11:49:31.441Z,48.73
2018-05-04T11:50:58.980Z,47.12
2018-05-04T11:52:26.516Z,45.09
2018-05-04T11:53:53.950Z,46.60
2018-05-04T11:55:21.383Z,43.55
2018-05-04T11:56:48.793Z,44.53
2018-05-04T11:58:16.230Z,45.54
2018-05-04T11:59:47.601Z,43.85
2018-05-04T12:01:15.005Z,45.69
2018-05-04T12:02:43.250Z,40.44
2018-05-04T12:04:09.568Z,42.33
2018-05-04T12:05:33.129Z,45.73
2018-05-04T12:07:04.466Z,47.95
2018-05-04T12:08:27.948Z,46.62
2018-05-04T12:09:58.859Z,45.73
2018-05-04T12:11:22.308Z,45.29
2018-05-04T12:12:53.622Z,44.91
2018-05-04T12:14:16.915Z,44.75
2018-05-04T12:15:44.232Z,43.31
2018-05-04T12:17:11.618Z,43.01
2018-05-04T12:18:39.032Z,44.53
2018-05-04T12:20:06.546Z,47.01
2018-05-04T12:21:37.929Z,45.32
2018-05-04T12:23:01.259Z,43.75
2018-05-04T12:24:32.827Z,44.77
2018-05-04T12:25:56.167Z,43.35
2018-05-04T12:27:23.559Z,42.83
2018-05-04T12:28:50.970Z,45.40
2018-05-04T12:30:18.573Z,43.33
2018-05-04T12:31:45.948Z,43.53
2018-05-04T12:33:17.373Z,43.99
2018-05-04T12:34:40.648Z,41.25
2018-05-04T12:36:08.226Z,40.52
2018-05-04T12:37:35.663Z,41.93
2018-05-04T12:39:03.095Z,42.35
2018-05-04T12:40:34.654Z,43.34
2018-05-04T12:41:58.012Z,40.27
2018-05-04T12:43:25.307Z,39.02
2018-05-04T12:44:52.899Z,40.39
2018-05-04T12:46:24.197Z,40.80
2018-05-04T12:47:47.640Z,39.35
2018-05-04T12:49:14.834Z,41.33
2018-05-04T12:50:42.298Z,39.49
2018-05-04T12:52:09.880Z,37.65
2018-05-04T12:53:37.485Z,40.52
2018-05-04T12:55:04.604Z,39.51
2018-05-04T12:56:36.058Z,41.56
2018-05-04T12:58:03.570Z,39.44
2018-05-04T12:59:26.679Z,38.28
2018-05-04T13:00:54.241Z,40.40
2018-05-04T13:02:25.530Z,41.36
2018-05-04T13:03:48.940Z,43.54
2018-05-04T13:05:16.448Z,40.57
2018-05-04T13:06:43.995Z,40.98
2018-05-04T13:08:15.371Z,41.62
2018-05-04T13:09:38.899Z,42.77
2018-05-04T13:11:06.382Z,41.81
2018-05-04T13:12:33.914Z,40.62
2018-05-04T13:14:05.338Z,39.36
2018-05-04T13:15:28.685Z,43.22
2018-05-04T13:16:56.282Z,44.34
2018-05-04T13:18:23.579Z,42.73
2018-05-04T13:19:51.230Z,42.35
2018-05-04T13:21:22.447Z,40.31
2018-05-04T13:22:45.720Z,42.49
2018-05-04T13:24:13.157Z,43.91
2018-05-04T13:25:40.404Z,43.84
2018-05-04T13:27:07.893Z,42.06
2018-05-04T13:28:35.390Z,41.98
2018-05-04T13:30:02.800Z,41.23
2018-05-04T13:31:30.096Z,42.53
2018-05-04T13:33:01.363Z,41.47
2018-05-04T13:34:28.627Z,43.12
2018-05-04T13:35:56.145Z,40.56
2018-05-04T13:37:19.346Z,39.22
2018-05-04T13:38:50.731Z,40.50
2018-05-04T13:40:14.311Z,40.85
2018-05-04T13:41:45.784Z,40.23
2018-05-04T13:43:09.399Z,41.53
2018-05-04T13:44:40.691Z,42.50
2018-05-04T13:46:04.159Z,42.21
2018-05-04T13:47:31.834Z,41.76
2018-05-04T13:48:59.288Z,42.39
2018-05-04T13:50:26.707Z,41.77
2018-05-04T13:51:57.980Z,41.24
2018-05-04T13:53:25.372Z,40.08
2018-05-04T13:54:48.707Z,40.34
2018-05-04T13:56:16.166Z,40.55
2018-05-04T13:57:43.647Z,42.81
2018-05-04T13:59:10.830Z,40.78
2018-05-04T14:00:42.397Z,43.65
2018-05-04T14:02:09.782Z,42.18
2018-05-04T14:03:33.137Z,40.75
2018-05-04T14:05:00.669Z,43.04
2018-05-04T14:06:28.009Z,41.41
2018-05-04T14:07:55.457Z,43.12
2018-05-04T14:09:26.520Z,41.44
2018-05-04T14:10:49.613Z,42.29
2018-05-04T14:12:16.900Z,42.00
2018-05-04T14:13:44.093Z,42.94
2018-05-04T14:15:15.161Z,42.57
2018-05-04T14:16:38.620Z,42.29
2018-05-04T14:18:09.990Z,41.48
2018-05-04T14:19:33.211Z,41.55
2018-05-04T14:21:00.915Z,40.85
2018-05-04T14:22:28.136Z,40.94
2018-05-04T14:23:55.472Z,40.81
2018-05-04T14:25:22.885Z,41.47
2018-05-04T14:26:50.270Z,41.86
2018-05-04T14:28:21.578Z,42.53
2018-05-04T14:29:45.091Z,42.37
2018-05-04T14:31:12.402Z,40.81
2018-05-04T14:32:43.828Z,42.53
2018-05-04T14:34:07.296Z,42.80
2018-05-04T14:35:34.748Z,42.27
2018-05-04T14:37:02.105Z,43.24
2018-05-04T14:38:33.337Z,42.49
2018-05-04T14:39:56.720Z,44.61
2018-05-04T14:41:31.013Z,41.79
2018-05-04T14:42:51.344Z,43.47
2018-05-04T14:44:18.781Z,43.18
2018-05-04T14:45:45.846Z,42.08
2018-05-04T14:47:13.378Z,41.76
2018-05-04T14:48:44.518Z,42.42
2018-05-04T14:50:07.989Z,42.21
2018-05-04T14:51:39.701Z,42.91
2018-05-04T14:53:03.018Z,42.20
2018-05-04T14:54:34.426Z,42.00
2018-05-04T14:55:57.880Z,42.67
2018-05-04T14:57:25.121Z,42.69
2018-05-04T14:58:56.667Z,41.75
2018-05-04T15:00:23.942Z,41.62
2018-05-04T15:01:51.455Z,41.78
2018-05-04T15:03:14.756Z,42.39
2018-05-04T15:04:46.348Z,40.89
2018-05-04T15:06:09.663Z,42.49
2018-05-04T15:07:36.933Z,41.64
2018-05-04T15:09:04.329Z,41.91
2018-05-04T15:10:35.707Z,41.04
2018-05-04T15:11:59.319Z,41.66
2018-05-04T15:13:26.760Z,42.98
2018-05-04T15:14:54.119Z,41.21
2018-05-04T15:16:21.521Z,40.83
2018-05-04T15:17:48.941Z,42.25
2018-05-04T15:19:16.116Z,40.47
2018-05-04T15:20:47.594Z,40.66
2018-05-04T15:22:10.808Z,41.54
2018-05-04T15:23:42.154Z,41.09
2018-05-04T15:25:09.631Z,41.15
2018-05-04T15:26:33.014Z,40.35
2018-05-04T15:28:04.578Z,41.19
2018-05-04T15:29:27.862Z,41.55
2018-05-04T15:30:55.340Z,40.96
2018-05-04T15:32:26.781Z,40.53
2018-05-04T15:33:54.091Z,40.85
2018-05-04T15:35:21.401Z,40.27
2018-05-04T15:36:48.990Z,39.71
2018-05-04T15:38:16.383Z,39.89
2018-05-04T15:39:39.744Z,39.28
2018-05-04T15:41:11.090Z,38.51
2018-05-04T15:42:34.300Z,38.15
2018-05-04T15:44:01.781Z,38.19
2018-05-04T15:45:33.097Z,38.30
2018-05-04T15:47:00.530Z,39.10
2018-05-04T15:48:27.816Z,40.34
2018-05-04T15:49:54.920Z,40.38
2018-05-04T15:51:22.414Z,40.24
2018-05-04T15:52:45.336Z,37.52
2018-05-04T15:54:16.898Z,37.81
2018-05-04T15:55:44.389Z,37.72
2018-05-04T15:57:07.798Z,39.60
2018-05-04T15:58:35.391Z,37.46
2018-05-04T16:00:06.864Z,37.44
2018-05-04T16:01:34.192Z,37.00
2018-05-04T16:02:57.545Z,38.26
2018-05-04T16:04:24.899Z,38.72
2018-05-04T16:05:56.488Z,39.83
2018-05-04T16:07:19.795Z,39.01
2018-05-04T16:08:47.177Z,37.21
2018-05-04T16:10:14.715Z,37.02
2018-05-04T16:11:42.245Z,37.16
2018-05-04T16:13:09.462Z,37.33
2018-05-04T16:14:41.020Z,38.33
2018-05-04T16:16:08.528Z,37.15
2018-05-04T16:17:31.959Z,37.45
2018-05-04T16:18:59.359Z,36.48
2018-05-04T16:20:30.753Z,36.39
2018-05-04T16:21:54.150Z,35.95
2018-05-04T16:23:25.648Z,36.22
2018-05-04T16:24:49.084Z,37.18
2018-05-04T16:26:16.266Z,37.32
2018-05-04T16:27:47.639Z,36.76
2018-05-04T16:29:15.086Z,38.24
2018-05-04T16:30:42.460Z,37.11
2018-05-04T16:32:09.925Z,36.48
2018-05-04T16:33:33.098Z,37.99
2018-05-04T16:35:00.219Z,38.52
2018-05-04T16:36:31.688Z,38.53
2018-05-04T16:37:54.987Z,38.32
2018-05-04T16:39:26.489Z,38.36
2018-05-04T16:40:50.002Z,38.27
2018-05-04T16:42:21.377Z,37.99
2018-05-04T16:43:44.767Z,40.28
2018-05-04T16:45:11.553Z,39.49
2018-05-04T16:46:43.181Z,39.54
2018-05-04T16:48:06.516Z,40.26
2018-05-04T16:49:33.848Z,38.79
2018-05-04T16:51:05.241Z,40.54
2018-05-04T16:52:28.720Z,39.94
2018-05-04T16:53:56.054Z,39.44
2018-05-04T16:55:23.462Z,39.65
2018-05-04T16:56:50.767Z,39.91
2018-05-04T16:58:22.193Z,40.21
2018-05-04T16:59:45.445Z,39.85
2018-05-04T17:01:16.564Z,39.25
2018-05-04T17:02:39.807Z,38.78
2018-05-04T17:04:07.207Z,39.84
2018-05-04T17:05:34.591Z,41.05
2018-05-04T17:07:01.869Z,42.18
2018-05-04T17:08:29.345Z,40.54
2018-05-04T17:09:56.530Z,40.96
2018-05-04T17:11:23.908Z,41.65
2018-05-04T17:12:51.246Z,41.79
2018-05-04T17:14:18.423Z,41.44
2018-05-04T17:15:45.802Z,42.39
2018-05-04T17:17:13.105Z,42.99
2018-05-04T17:18:40.416Z,42.58
2018-05-04T17:20:07.836Z,43.18
2018-05-04T17:21:35.281Z,41.84
2018-05-04T17:23:02.657Z,41.91
2018-05-04T17:24:29.898Z,40.84
2018-05-04T17:26:01.355Z,42.28
2018-05-04T17:27:24.384Z,42.14
2018-05-04T17:28:55.583Z,42.45
2018-05-04T17:30:18.854Z,42.73
2018-05-04T17:31:50.016Z,42.40
2018-05-04T17:33:13.467Z,43.63
2018-05-04T17:34:40.873Z,44.43
2018-05-04T17:36:09.316Z,45.20
2018-05-04T17:37:39.871Z,46.43
2018-05-04T17:39:07.175Z,46.99
2018-05-04T17:40:30.578Z,47.70
2018-05-04T17:41:57.674Z,48.86
2018-05-04T17:43:25.121Z,49.07
2018-05-04T17:44:56.452Z,49.74
2018-05-04T17:46:19.853Z,50.40
2018-05-04T17:47:47.287Z,50.41
2018-05-04T17:49:14.641Z,51.02
2018-05-04T17:50:42.082Z,51.57
2018-05-04T17:52:13.485Z,52.57
2018-05-04T17:53:36.780Z,53.29
2018-05-04T17:55:08.378Z,53.79
2018-05-04T17:56:35.668Z,54.34
2018-05-04T17:58:02.741Z,55.31
2018-05-04T17:59:26.213Z,55.84
2018-05-04T18:00:57.522Z,56.22
2018-05-04T18:02:20.779Z,57.13
2018-05-04T18:03:52.059Z,57.22
2018-05-04T18:05:19.395Z,57.15
2018-05-04T18:06:42.949Z,57.97
2018-05-04T18:08:14.297Z,58.15
2018-05-04T18:09:41.537Z,57.70
2018-05-04T18:11:08.745Z,58.50
2018-05-04T18:12:36.130Z,58.80
2018-05-04T18:13:59.387Z,58.78
2018-05-04T18:15:26.099Z,59.39
2018-05-04T18:16:53.443Z,59.55
2018-05-04T18:18:20.808Z,59.95
2018-05-04T18:19:52.078Z,59.23
2018-05-04T18:21:15.269Z,59.30
2018-05-04T18:22:42.623Z,60.41
2018-05-04T18:24:09.928Z,60.48
2018-05-04T18:25:37.117Z,60.72
2018-05-04T18:27:08.479Z,59.46
2018-05-04T18:28:35.902Z,57.80
2018-05-04T18:29:59.158Z,58.03
2018-05-04T18:31:30.023Z,57.97
2018-05-04T18:32:53.379Z,58.81
2018-05-04T18:34:20.546Z,58.56
2018-05-04T18:35:51.805Z,58.26
2018-05-04T18:37:19.030Z,58.51
2018-05-04T18:38:42.286Z,59.30
2018-05-04T18:40:09.524Z,59.42
2018-05-04T18:41:36.614Z,60.26
2018-05-04T18:43:03.998Z,59.58
2018-05-04T18:44:35.278Z,60.64